sensor_id;sensor_type;location;lat;lon;timestamp;noise_LAeq;noise_LA_min;noise_LA_max;noise_LA01;noise_LA95
66888;Laerm;67239;51.680;5.976;2024-03-07T00:00:13;36.16;31.38;49.63;;
66888;Laerm;67239;51.680;5.976;2024-03-07T00:02:49;59.11;32.37;79.56;;
66888;Laerm;67239;51.680;5.976;2024-03-07T00:05:19;54.18;31.31;72.03;;
66888;Laerm;67239;51.680;5.976;2024-03-07T00:07:47;33.18;31.00;35.09;;
66888;Laerm;67239;51.680;5.976;2024-03-07T00:10:15;34.02;31.37;39.99;;
66888;Laerm;67239;51.680;5.976;2024-03-07T00:12:43;32.97;30.53;38.11;;
66888;Laerm;67239;51.680;5.976;2024-03-07T00:15:12;33.69;31.42;37.99;;
66888;Laerm;67239;51.680;5.976;2024-03-07T00:17:41;34.04;31.47;36.54;;
66888;Laerm;67239;51.680;5.976;2024-03-07T00:20:09;34.71;31.71;39.12;;
66888;Laerm;67239;51.680;5.976;2024-03-07T00:22:42;58.47;32.01;77.60;;
66888;Laerm;67239;51.680;5.976;2024-03-07T00:25:10;34.51;32.03;40.84;;
66888;Laerm;67239;51.680;5.976;2024-03-07T00:27:39;34.24;31.89;41.00;;
66888;Laerm;67239;51.680;5.976;2024-03-07T00:30:07;33.91;31.79;41.63;;
66888;Laerm;67239;51.680;5.976;2024-03-07T00:32:40;33.50;31.38;39.53;;
66888;Laerm;67239;51.680;5.976;2024-03-07T00:35:08;34.25;31.50;41.94;;
66888;Laerm;67239;51.680;5.976;2024-03-07T00:37:38;61.92;32.90;80.09;;
66888;Laerm;67239;51.680;5.976;2024-03-07T00:40:06;35.48;31.24;50.71;;
66888;Laerm;67239;51.680;5.976;2024-03-07T00:42:33;34.05;31.52;41.43;;
66888;Laerm;67239;51.680;5.976;2024-03-07T00:45:01;34.61;31.62;45.49;;
66888;Laerm;67239;51.680;5.976;2024-03-07T00:47:28;58.36;31.49;78.49;;
66888;Laerm;67239;51.680;5.976;2024-03-07T00:49:56;34.82;31.85;43.24;;
66888;Laerm;67239;51.680;5.976;2024-03-07T00:52:23;36.19;31.55;44.33;;
66888;Laerm;67239;51.680;5.976;2024-03-07T00:54:50;34.96;31.81;47.73;;
66888;Laerm;67239;51.680;5.976;2024-03-07T00:57:17;34.84;31.56;38.20;;
66888;Laerm;67239;51.680;5.976;2024-03-07T00:59:44;59.77;31.74;79.53;;
66888;Laerm;67239;51.680;5.976;2024-03-07T01:02:12;54.06;31.17;74.50;;
66888;Laerm;67239;51.680;5.976;2024-03-07T01:04:39;33.30;31.03;37.42;;
66888;Laerm;67239;51.680;5.976;2024-03-07T01:07:06;33.81;30.68;39.23;;
66888;Laerm;67239;51.680;5.976;2024-03-07T01:09:33;34.95;31.42;42.09;;
66888;Laerm;67239;51.680;5.976;2024-03-07T01:12:02;33.75;31.27;35.92;;
66888;Laerm;67239;51.680;5.976;2024-03-07T01:14:33;34.20;31.84;40.37;;
66888;Laerm;67239;51.680;5.976;2024-03-07T01:17:00;33.56;31.15;36.36;;
66888;Laerm;67239;51.680;5.976;2024-03-07T01:19:27;62.22;31.20;81.07;;
66888;Laerm;67239;51.680;5.976;2024-03-07T01:21:54;36.49;31.66;48.53;;
66888;Laerm;67239;51.680;5.976;2024-03-07T01:24:22;37.50;31.42;45.79;;
66888;Laerm;67239;51.680;5.976;2024-03-07T01:26:49;55.00;31.40;72.32;;
66888;Laerm;67239;51.680;5.976;2024-03-07T01:29:17;33.57;30.89;43.29;;
66888;Laerm;67239;51.680;5.976;2024-03-07T01:31:44;34.01;30.97;43.01;;
66888;Laerm;67239;51.680;5.976;2024-03-07T01:34:11;33.41;31.42;36.28;;
66888;Laerm;67239;51.680;5.976;2024-03-07T01:36:39;33.63;31.47;35.99;;
66888;Laerm;67239;51.680;5.976;2024-03-07T01:39:06;33.78;30.85;44.24;;
66888;Laerm;67239;51.680;5.976;2024-03-07T01:41:34;35.33;33.10;42.15;;
66888;Laerm;67239;51.680;5.976;2024-03-07T01:44:02;39.11;32.79;49.38;;
66888;Laerm;67239;51.680;5.976;2024-03-07T01:46:29;35.03;32.29;39.52;;
66888;Laerm;67239;51.680;5.976;2024-03-07T01:48:58;34.90;32.08;44.55;;
66888;Laerm;67239;51.680;5.976;2024-03-07T01:51:26;36.33;32.02;46.11;;
66888;Laerm;67239;51.680;5.976;2024-03-07T01:53:54;33.89;31.03;41.29;;
66888;Laerm;67239;51.680;5.976;2024-03-07T01:56:21;34.62;30.69;42.98;;
66888;Laerm;67239;51.680;5.976;2024-03-07T01:58:50;32.96;30.54;39.26;;
66888;Laerm;67239;51.680;5.976;2024-03-07T02:01:18;58.79;31.50;77.64;;
66888;Laerm;67239;51.680;5.976;2024-03-07T02:03:46;34.43;31.20;40.04;;
66888;Laerm;67239;51.680;5.976;2024-03-07T02:06:14;34.39;30.84;43.97;;
66888;Laerm;67239;51.680;5.976;2024-03-07T02:08:41;32.65;30.42;35.07;;
66888;Laerm;67239;51.680;5.976;2024-03-07T02:11:09;34.95;30.97;40.68;;
66888;Laerm;67239;51.680;5.976;2024-03-07T02:13:37;35.49;32.20;43.22;;
66888;Laerm;67239;51.680;5.976;2024-03-07T02:16:04;39.85;33.38;48.51;;
66888;Laerm;67239;51.680;5.976;2024-03-07T02:18:33;34.85;31.17;42.87;;
66888;Laerm;67239;51.680;5.976;2024-03-07T02:21:07;36.40;31.43;50.84;;
66888;Laerm;67239;51.680;5.976;2024-03-07T02:23:34;36.01;32.37;46.84;;
66888;Laerm;67239;51.680;5.976;2024-03-07T02:26:01;53.72;33.42;71.15;;
66888;Laerm;67239;51.680;5.976;2024-03-07T02:28:30;37.68;31.53;47.88;;
66888;Laerm;67239;51.680;5.976;2024-03-07T02:30:57;35.47;31.91;43.80;;
66888;Laerm;67239;51.680;5.976;2024-03-07T02:33:24;36.54;30.79;45.16;;
66888;Laerm;67239;51.680;5.976;2024-03-07T02:35:51;36.18;31.99;45.62;;
66888;Laerm;67239;51.680;5.976;2024-03-07T02:38:19;40.73;32.30;50.62;;
66888;Laerm;67239;51.680;5.976;2024-03-07T02:40:46;37.13;31.61;53.06;;
66888;Laerm;67239;51.680;5.976;2024-03-07T02:43:13;46.81;33.00;68.41;;
66888;Laerm;67239;51.680;5.976;2024-03-07T02:45:40;40.54;33.02;53.64;;
66888;Laerm;67239;51.680;5.976;2024-03-07T02:48:08;62.45;32.54;81.38;;
66888;Laerm;67239;51.680;5.976;2024-03-07T02:50:37;36.07;31.76;43.09;;
66888;Laerm;67239;51.680;5.976;2024-03-07T02:53:07;33.98;31.17;43.83;;
66888;Laerm;67239;51.680;5.976;2024-03-07T02:55:34;34.65;31.26;42.96;;
66888;Laerm;67239;51.680;5.976;2024-03-07T02:58:01;60.72;31.85;80.02;;
66888;Laerm;67239;51.680;5.976;2024-03-07T03:00:29;56.38;32.21;74.86;;
66888;Laerm;67239;51.680;5.976;2024-03-07T03:02:59;36.27;31.46;45.53;;
66888;Laerm;67239;51.680;5.976;2024-03-07T03:05:26;35.48;31.06;48.69;;
66888;Laerm;67239;51.680;5.976;2024-03-07T03:07:53;62.77;32.25;79.25;;
66888;Laerm;67239;51.680;5.976;2024-03-07T03:10:22;60.73;31.44;78.13;;
66888;Laerm;67239;51.680;5.976;2024-03-07T03:12:53;44.65;31.43;67.69;;
66888;Laerm;67239;51.680;5.976;2024-03-07T03:15:21;60.85;33.01;81.21;;
66888;Laerm;67239;51.680;5.976;2024-03-07T03:17:49;39.95;32.51;51.34;;
66888;Laerm;67239;51.680;5.976;2024-03-07T03:20:17;54.48;32.26;73.11;;
66888;Laerm;67239;51.680;5.976;2024-03-07T03:23:01;40.06;32.33;57.26;;
66888;Laerm;67239;51.680;5.976;2024-03-07T03:25:34;39.49;32.30;63.33;;
66888;Laerm;67239;51.680;5.976;2024-03-07T03:28:02;47.67;32.53;70.09;;
66888;Laerm;67239;51.680;5.976;2024-03-07T03:30:30;40.54;32.72;61.86;;
66888;Laerm;67239;51.680;5.976;2024-03-07T03:32:59;39.53;32.75;52.60;;
66888;Laerm;67239;51.680;5.976;2024-03-07T03:35:27;40.89;32.56;53.21;;
66888;Laerm;67239;51.680;5.976;2024-03-07T03:37:55;40.20;32.95;55.02;;
66888;Laerm;67239;51.680;5.976;2024-03-07T03:40:22;46.74;32.79;66.38;;
66888;Laerm;67239;51.680;5.976;2024-03-07T03:42:49;43.57;33.28;66.22;;
66888;Laerm;67239;51.680;5.976;2024-03-07T03:45:18;60.00;34.48;80.09;;
66888;Laerm;67239;51.680;5.976;2024-03-07T03:47:45;61.95;35.21;77.95;;
66888;Laerm;67239;51.680;5.976;2024-03-07T03:50:13;46.02;33.87;65.27;;
66888;Laerm;67239;51.680;5.976;2024-03-07T03:52:41;41.74;33.12;60.21;;
66888;Laerm;67239;51.680;5.976;2024-03-07T03:55:09;58.35;35.71;78.35;;
66888;Laerm;67239;51.680;5.976;2024-03-07T03:57:39;53.78;34.26;71.43;;
66888;Laerm;67239;51.680;5.976;2024-03-07T04:00:08;39.93;33.79;56.45;;
66888;Laerm;67239;51.680;5.976;2024-03-07T04:02:46;60.64;35.16;79.27;;
66888;Laerm;67239;51.680;5.976;2024-03-07T04:05:19;62.35;36.07;81.24;;
66888;Laerm;67239;51.680;5.976;2024-03-07T04:07:48;67.52;36.85;84.20;;
66888;Laerm;67239;51.680;5.976;2024-03-07T04:10:17;47.63;34.86;69.00;;
66888;Laerm;67239;51.680;5.976;2024-03-07T04:12:45;61.11;35.61;77.14;;
66888;Laerm;67239;51.680;5.976;2024-03-07T04:15:15;59.95;40.63;74.28;;
66888;Laerm;67239;51.680;5.976;2024-03-07T04:17:46;64.20;36.76;78.57;;
66888;Laerm;67239;51.680;5.976;2024-03-07T04:20:15;65.19;36.26;81.82;;
66888;Laerm;67239;51.680;5.976;2024-03-07T04:22:46;60.65;34.81;78.85;;
66888;Laerm;67239;51.680;5.976;2024-03-07T04:25:13;61.45;36.35;75.79;;
66888;Laerm;67239;51.680;5.976;2024-03-07T04:27:42;60.33;38.13;76.67;;
66888;Laerm;67239;51.680;5.976;2024-03-07T04:30:09;56.52;38.44;72.72;;
66888;Laerm;67239;51.680;5.976;2024-03-07T04:32:38;56.50;37.38;71.45;;
66888;Laerm;67239;51.680;5.976;2024-03-07T04:35:07;57.83;37.81;75.00;;
66888;Laerm;67239;51.680;5.976;2024-03-07T04:37:38;67.13;38.94;84.11;;
66888;Laerm;67239;51.680;5.976;2024-03-07T04:40:09;67.85;39.05;85.08;;
66888;Laerm;67239;51.680;5.976;2024-03-07T04:42:46;63.27;37.58;76.94;;
66888;Laerm;67239;51.680;5.976;2024-03-07T04:45:14;62.25;37.52;76.32;;
66888;Laerm;67239;51.680;5.976;2024-03-07T04:47:45;58.57;36.78;73.71;;
66888;Laerm;67239;51.680;5.976;2024-03-07T04:50:14;64.79;42.25;79.07;;
66888;Laerm;67239;51.680;5.976;2024-03-07T04:52:45;66.33;38.60;79.56;;
66888;Laerm;67239;51.680;5.976;2024-03-07T04:55:14;63.44;38.19;78.54;;
66888;Laerm;67239;51.680;5.976;2024-03-07T04:57:41;63.12;39.18;79.87;;
66888;Laerm;67239;51.680;5.976;2024-03-07T05:00:11;63.68;41.38;78.72;;
66888;Laerm;67239;51.680;5.976;2024-03-07T05:02:48;67.44;41.54;83.54;;
66888;Laerm;67239;51.680;5.976;2024-03-07T05:05:17;65.77;43.09;78.22;;
66888;Laerm;67239;51.680;5.976;2024-03-07T05:07:50;65.33;38.33;77.14;;
66888;Laerm;67239;51.680;5.976;2024-03-07T05:10:18;69.27;42.80;83.37;;
66888;Laerm;67239;51.680;5.976;2024-03-07T05:12:45;65.94;42.56;79.74;;
66888;Laerm;67239;51.680;5.976;2024-03-07T05:15:12;69.52;44.51;83.16;;
66888;Laerm;67239;51.680;5.976;2024-03-07T05:17:40;66.38;41.30;83.60;;
66888;Laerm;67239;51.680;5.976;2024-03-07T05:20:10;67.56;42.89;82.17;;
66888;Laerm;67239;51.680;5.976;2024-03-07T05:22:39;68.38;45.72;84.03;;
66888;Laerm;67239;51.680;5.976;2024-03-07T05:25:17;67.24;42.42;84.05;;
66888;Laerm;67239;51.680;5.976;2024-03-07T05:27:49;64.54;44.03;79.51;;
66888;Laerm;67239;51.680;5.976;2024-03-07T05:30:17;63.07;42.64;78.08;;
66888;Laerm;67239;51.680;5.976;2024-03-07T05:32:45;63.22;43.64;76.12;;
66888;Laerm;67239;51.680;5.976;2024-03-07T05:35:12;64.80;43.97;83.17;;
66888;Laerm;67239;51.680;5.976;2024-03-07T05:37:39;63.65;43.53;79.23;;
66888;Laerm;67239;51.680;5.976;2024-03-07T05:40:14;65.61;46.76;82.01;;
66888;Laerm;67239;51.680;5.976;2024-03-07T05:42:41;67.67;45.43;81.42;;
66888;Laerm;67239;51.680;5.976;2024-03-07T05:45:08;70.11;44.07;85.37;;
66888;Laerm;67239;51.680;5.976;2024-03-07T05:47:36;68.58;47.01;81.75;;
66888;Laerm;67239;51.680;5.976;2024-03-07T05:50:07;69.45;45.15;80.61;;
66888;Laerm;67239;51.680;5.976;2024-03-07T05:52:37;67.54;46.57;81.09;;
66888;Laerm;67239;51.680;5.976;2024-03-07T05:55:05;68.24;44.87;81.78;;
66888;Laerm;67239;51.680;5.976;2024-03-07T05:57:33;67.12;45.04;83.14;;
66888;Laerm;67239;51.680;5.976;2024-03-07T06:00:00;70.46;49.30;85.99;;
66888;Laerm;67239;51.680;5.976;2024-03-07T06:02:39;69.95;47.55;81.46;;
66888;Laerm;67239;51.680;5.976;2024-03-07T06:05:07;65.68;45.50;78.91;;
66888;Laerm;67239;51.680;5.976;2024-03-07T06:07:39;71.77;47.82;83.69;;
66888;Laerm;67239;51.680;5.976;2024-03-07T06:10:07;69.56;43.93;83.09;;
66888;Laerm;67239;51.680;5.976;2024-03-07T06:12:38;62.83;44.26;79.04;;
66888;Laerm;67239;51.680;5.976;2024-03-07T06:15:15;70.41;50.13;83.35;;
66888;Laerm;67239;51.680;5.976;2024-03-07T06:17:42;69.43;46.15;82.92;;
66888;Laerm;67239;51.680;5.976;2024-03-07T06:20:13;68.26;44.03;82.89;;
66888;Laerm;67239;51.680;5.976;2024-03-07T06:22:52;73.39;48.43;93.80;;
66888;Laerm;67239;51.680;5.976;2024-03-07T06:25:21;67.43;46.15;81.14;;
66888;Laerm;67239;51.680;5.976;2024-03-07T06:28:02;67.33;46.92;79.90;;
66888;Laerm;67239;51.680;5.976;2024-03-07T06:30:42;66.91;46.49;81.51;;
66888;Laerm;67239;51.680;5.976;2024-03-07T06:33:13;70.82;46.05;88.11;;
66888;Laerm;67239;51.680;5.976;2024-03-07T06:35:45;68.55;46.33;80.56;;
66888;Laerm;67239;51.680;5.976;2024-03-07T06:38:12;68.29;47.48;84.58;;
66888;Laerm;67239;51.680;5.976;2024-03-07T06:40:41;69.75;50.16;81.11;;
66888;Laerm;67239;51.680;5.976;2024-03-07T06:43:11;70.74;51.57;83.61;;
66888;Laerm;67239;51.680;5.976;2024-03-07T06:45:39;68.52;47.68;81.43;;
66888;Laerm;67239;51.680;5.976;2024-03-07T06:48:08;68.87;48.61;81.70;;
66888;Laerm;67239;51.680;5.976;2024-03-07T06:50:37;68.61;48.58;81.11;;
66888;Laerm;67239;51.680;5.976;2024-03-07T06:53:07;70.47;46.81;83.86;;
66888;Laerm;67239;51.680;5.976;2024-03-07T06:55:36;71.32;48.46;84.01;;
66888;Laerm;67239;51.680;5.976;2024-03-07T06:58:03;67.79;45.75;83.93;;
66888;Laerm;67239;51.680;5.976;2024-03-07T07:00:32;69.87;47.96;81.62;;
66888;Laerm;67239;51.680;5.976;2024-03-07T07:03:02;69.81;49.22;84.26;;
66888;Laerm;67239;51.680;5.976;2024-03-07T07:05:35;67.53;44.76;81.57;;
66888;Laerm;67239;51.680;5.976;2024-03-07T07:08:03;65.08;45.58;84.02;;
66888;Laerm;67239;51.680;5.976;2024-03-07T07:10:32;69.02;45.42;82.22;;
66888;Laerm;67239;51.680;5.976;2024-03-07T07:12:59;70.38;47.89;83.00;;
66888;Laerm;67239;51.680;5.976;2024-03-07T07:15:26;70.84;49.38;82.78;;
66888;Laerm;67239;51.680;5.976;2024-03-07T07:17:53;69.34;47.01;82.52;;
66888;Laerm;67239;51.680;5.976;2024-03-07T07:20:21;69.18;47.94;83.08;;
66888;Laerm;67239;51.680;5.976;2024-03-07T07:22:51;67.54;47.36;79.84;;
66888;Laerm;67239;51.680;5.976;2024-03-07T07:25:20;69.51;49.44;80.44;;
66888;Laerm;67239;51.680;5.976;2024-03-07T07:27:51;68.29;48.60;78.54;;
66888;Laerm;67239;51.680;5.976;2024-03-07T07:30:21;73.02;51.14;84.96;;
66888;Laerm;67239;51.680;5.976;2024-03-07T07:32:53;71.33;51.32;80.92;;
66888;Laerm;67239;51.680;5.976;2024-03-07T07:35:22;70.59;48.76;82.59;;
66888;Laerm;67239;51.680;5.976;2024-03-07T07:37:51;70.28;45.92;83.62;;
66888;Laerm;67239;51.680;5.976;2024-03-07T07:40:23;69.68;45.62;83.11;;
66888;Laerm;67239;51.680;5.976;2024-03-07T07:42:52;70.65;44.72;82.30;;
66888;Laerm;67239;51.680;5.976;2024-03-07T07:45:22;70.22;47.75;81.49;;
66888;Laerm;67239;51.680;5.976;2024-03-07T07:47:52;69.43;47.50;81.27;;
66888;Laerm;67239;51.680;5.976;2024-03-07T07:50:22;70.08;48.79;83.15;;
66888;Laerm;67239;51.680;5.976;2024-03-07T07:52:53;67.83;44.82;83.54;;
66888;Laerm;67239;51.680;5.976;2024-03-07T07:55:26;71.21;50.68;83.46;;
66888;Laerm;67239;51.680;5.976;2024-03-07T07:57:56;69.17;43.73;83.33;;
66888;Laerm;67239;51.680;5.976;2024-03-07T08:00:27;69.73;44.78;84.31;;
66888;Laerm;67239;51.680;5.976;2024-03-07T08:03:02;68.69;46.65;82.43;;
66888;Laerm;67239;51.680;5.976;2024-03-07T08:05:35;69.39;43.33;84.18;;
66888;Laerm;67239;51.680;5.976;2024-03-07T08:08:07;67.91;41.76;82.86;;
66888;Laerm;67239;51.680;5.976;2024-03-07T08:10:37;72.68;48.78;89.08;;
66888;Laerm;67239;51.680;5.976;2024-03-07T08:13:05;69.52;44.00;83.27;;
66888;Laerm;67239;51.680;5.976;2024-03-07T08:15:37;68.93;42.19;82.37;;
66888;Laerm;67239;51.680;5.976;2024-03-07T08:18:05;67.67;46.59;81.17;;
66888;Laerm;67239;51.680;5.976;2024-03-07T08:20:40;68.54;44.40;80.43;;
66888;Laerm;67239;51.680;5.976;2024-03-07T08:23:09;68.51;43.06;83.71;;
66888;Laerm;67239;51.680;5.976;2024-03-07T08:25:37;69.74;44.12;81.20;;
66888;Laerm;67239;51.680;5.976;2024-03-07T08:28:07;69.17;41.78;80.78;;
66888;Laerm;67239;51.680;5.976;2024-03-07T08:30:34;66.17;43.92;78.47;;
66888;Laerm;67239;51.680;5.976;2024-03-07T08:33:02;67.55;43.66;81.46;;
66888;Laerm;67239;51.680;5.976;2024-03-07T08:35:33;70.02;40.51;85.24;;
66888;Laerm;67239;51.680;5.976;2024-03-07T08:38:01;67.51;40.28;79.99;;
66888;Laerm;67239;51.680;5.976;2024-03-07T08:40:30;69.00;46.87;79.55;;
66888;Laerm;67239;51.680;5.976;2024-03-07T08:43:00;69.10;46.43;81.24;;
66888;Laerm;67239;51.680;5.976;2024-03-07T08:45:29;70.77;43.43;84.43;;
66888;Laerm;67239;51.680;5.976;2024-03-07T08:47:57;67.40;44.14;80.94;;
66888;Laerm;67239;51.680;5.976;2024-03-07T08:50:27;67.09;42.06;82.98;;
66888;Laerm;67239;51.680;5.976;2024-03-07T08:52:55;69.07;45.47;81.72;;
66888;Laerm;67239;51.680;5.976;2024-03-07T08:55:24;71.54;49.95;83.92;;
66888;Laerm;67239;51.680;5.976;2024-03-07T08:57:53;69.42;49.96;84.57;;
66888;Laerm;67239;51.680;5.976;2024-03-07T09:00:20;70.74;46.51;82.01;;
66888;Laerm;67239;51.680;5.976;2024-03-07T09:02:59;69.72;43.50;82.89;;
66888;Laerm;67239;51.680;5.976;2024-03-07T09:05:30;66.81;43.06;81.34;;
66888;Laerm;67239;51.680;5.976;2024-03-07T09:08:01;67.55;44.89;80.57;;
66888;Laerm;67239;51.680;5.976;2024-03-07T09:10:30;68.60;42.87;83.35;;
66888;Laerm;67239;51.680;5.976;2024-03-07T09:12:58;69.80;41.78;82.84;;
66888;Laerm;67239;51.680;5.976;2024-03-07T09:15:25;68.31;43.35;83.24;;
66888;Laerm;67239;51.680;5.976;2024-03-07T09:17:54;67.86;43.60;79.18;;
66888;Laerm;67239;51.680;5.976;2024-03-07T09:20:21;69.15;46.00;80.27;;
66888;Laerm;67239;51.680;5.976;2024-03-07T09:22:50;69.69;42.00;82.32;;
66888;Laerm;67239;51.680;5.976;2024-03-07T09:25:21;69.51;47.25;81.62;;
66888;Laerm;67239;51.680;5.976;2024-03-07T09:27:48;66.41;43.51;79.63;;
66888;Laerm;67239;51.680;5.976;2024-03-07T09:30:15;70.71;44.95;83.65;;
66888;Laerm;67239;51.680;5.976;2024-03-07T09:32:46;68.43;43.11;82.08;;
66888;Laerm;67239;51.680;5.976;2024-03-07T09:35:14;67.16;42.24;78.80;;
66888;Laerm;67239;51.680;5.976;2024-03-07T09:37:43;70.22;43.72;82.78;;
66888;Laerm;67239;51.680;5.976;2024-03-07T09:40:12;69.92;44.08;83.53;;
66888;Laerm;67239;51.680;5.976;2024-03-07T09:42:47;68.26;44.20;84.37;;
66888;Laerm;67239;51.680;5.976;2024-03-07T09:45:20;69.09;43.67;84.13;;
66888;Laerm;67239;51.680;5.976;2024-03-07T09:47:50;68.71;42.82;81.93;;
66888;Laerm;67239;51.680;5.976;2024-03-07T09:50:21;68.95;40.88;84.27;;
66888;Laerm;67239;51.680;5.976;2024-03-07T09:52:53;67.36;41.40;80.42;;
66888;Laerm;67239;51.680;5.976;2024-03-07T09:55:22;65.19;42.37;80.17;;
66888;Laerm;67239;51.680;5.976;2024-03-07T09:57:54;68.67;44.03;85.82;;
66888;Laerm;67239;51.680;5.976;2024-03-07T10:00:25;67.61;44.90;80.67;;
66888;Laerm;67239;51.680;5.976;2024-03-07T10:03:02;68.62;44.85;80.09;;
66888;Laerm;67239;51.680;5.976;2024-03-07T10:05:32;66.30;41.52;82.78;;
66888;Laerm;67239;51.680;5.976;2024-03-07T10:08:00;66.96;41.54;80.71;;
66888;Laerm;67239;51.680;5.976;2024-03-07T10:10:29;68.43;40.90;79.90;;
66888;Laerm;67239;51.680;5.976;2024-03-07T10:12:58;66.42;39.68;79.44;;
66888;Laerm;67239;51.680;5.976;2024-03-07T10:15:30;66.57;42.87;79.57;;
66888;Laerm;67239;51.680;5.976;2024-03-07T10:17:59;70.64;48.16;84.71;;
66888;Laerm;67239;51.680;5.976;2024-03-07T10:20:28;68.90;41.53;80.44;;
66888;Laerm;67239;51.680;5.976;2024-03-07T10:22:55;68.55;39.01;81.91;;
66888;Laerm;67239;51.680;5.976;2024-03-07T10:25:24;68.61;39.88;83.48;;
66888;Laerm;67239;51.680;5.976;2024-03-07T10:27:55;68.91;44.08;82.72;;
66888;Laerm;67239;51.680;5.976;2024-03-07T10:30:25;70.02;41.41;83.88;;
66888;Laerm;67239;51.680;5.976;2024-03-07T10:32:57;67.17;42.75;81.85;;
66888;Laerm;67239;51.680;5.976;2024-03-07T10:35:27;67.31;43.37;82.31;;
66888;Laerm;67239;51.680;5.976;2024-03-07T10:37:57;67.07;42.61;80.85;;
66888;Laerm;67239;51.680;5.976;2024-03-07T10:40:28;68.57;39.52;84.51;;
66888;Laerm;67239;51.680;5.976;2024-03-07T10:42:58;68.10;41.67;81.74;;
66888;Laerm;67239;51.680;5.976;2024-03-07T10:45:34;69.28;43.09;82.71;;
66888;Laerm;67239;51.680;5.976;2024-03-07T10:48:11;68.38;43.21;85.12;;
66888;Laerm;67239;51.680;5.976;2024-03-07T10:50:52;67.22;42.83;80.64;;
66888;Laerm;67239;51.680;5.976;2024-03-07T10:56:47;68.95;46.38;82.39;;
66888;Laerm;67239;51.680;5.976;2024-03-07T10:59:25;66.73;44.94;81.57;;
66888;Laerm;67239;51.680;5.976;2024-03-07T11:02:20;69.22;43.80;82.10;;
66888;Laerm;67239;51.680;5.976;2024-03-07T11:04:51;68.99;42.95;81.91;;
66888;Laerm;67239;51.680;5.976;2024-03-07T11:07:23;70.64;45.65;82.27;;
66888;Laerm;67239;51.680;5.976;2024-03-07T11:09:52;68.91;44.79;81.70;;
66888;Laerm;67239;51.680;5.976;2024-03-07T11:12:23;69.36;42.09;86.32;;
66888;Laerm;67239;51.680;5.976;2024-03-07T11:14:52;69.29;45.01;81.94;;
66888;Laerm;67239;51.680;5.976;2024-03-07T11:17:22;67.30;43.31;80.12;;
66888;Laerm;67239;51.680;5.976;2024-03-07T11:19:50;69.64;44.23;82.75;;
66888;Laerm;67239;51.680;5.976;2024-03-07T11:22:33;69.83;46.48;82.22;;
66888;Laerm;67239;51.680;5.976;2024-03-07T11:25:04;66.13;41.15;79.20;;
66888;Laerm;67239;51.680;5.976;2024-03-07T11:27:38;69.86;46.78;83.55;;
66888;Laerm;67239;51.680;5.976;2024-03-07T11:30:10;69.31;45.45;80.99;;
66888;Laerm;67239;51.680;5.976;2024-03-07T11:32:38;67.57;42.80;80.80;;
66888;Laerm;67239;51.680;5.976;2024-03-07T11:35:12;68.42;44.08;83.30;;
66888;Laerm;67239;51.680;5.976;2024-03-07T11:37:44;70.17;46.06;84.47;;
66888;Laerm;67239;51.680;5.976;2024-03-07T11:42:47;70.31;47.13;83.67;;
66888;Laerm;67239;51.680;5.976;2024-03-07T11:45:17;68.83;42.36;81.13;;
66888;Laerm;67239;51.680;5.976;2024-03-07T11:47:56;66.61;44.06;78.29;;
66888;Laerm;67239;51.680;5.976;2024-03-07T11:50:29;69.13;45.43;82.37;;
66888;Laerm;67239;51.680;5.976;2024-03-07T11:53:04;67.53;42.53;82.40;;
66888;Laerm;67239;51.680;5.976;2024-03-07T11:55:39;69.11;42.83;85.80;;
66888;Laerm;67239;51.680;5.976;2024-03-07T11:58:20;68.14;44.07;81.11;;
66888;Laerm;67239;51.680;5.976;2024-03-07T12:00:51;67.25;40.24;82.59;;
66888;Laerm;67239;51.680;5.976;2024-03-07T12:03:21;68.35;44.06;82.75;;
66888;Laerm;67239;51.680;5.976;2024-03-07T12:05:50;70.82;44.86;88.97;;
66888;Laerm;67239;51.680;5.976;2024-03-07T12:08:20;67.94;44.78;83.50;;
66888;Laerm;67239;51.680;5.976;2024-03-07T12:10:53;70.19;47.83;89.03;;
66888;Laerm;67239;51.680;5.976;2024-03-07T12:13:25;68.55;46.82;84.47;;
66888;Laerm;67239;51.680;5.976;2024-03-07T12:15:54;68.99;49.59;82.27;;
66888;Laerm;67239;51.680;5.976;2024-03-07T12:18:26;69.72;49.07;80.62;;
66888;Laerm;67239;51.680;5.976;2024-03-07T12:20:54;69.64;45.34;83.88;;
66888;Laerm;67239;51.680;5.976;2024-03-07T12:23:24;68.51;47.08;81.20;;
66888;Laerm;67239;51.680;5.976;2024-03-07T12:26:01;68.80;43.05;80.92;;
66888;Laerm;67239;51.680;5.976;2024-03-07T12:28:29;69.50;44.10;82.91;;
66888;Laerm;67239;51.680;5.976;2024-03-07T12:31:02;70.49;45.74;81.92;;
66888;Laerm;67239;51.680;5.976;2024-03-07T12:33:30;70.02;46.96;81.02;;
66888;Laerm;67239;51.680;5.976;2024-03-07T12:36:02;69.20;45.23;82.67;;
66888;Laerm;67239;51.680;5.976;2024-03-07T12:38:34;68.79;43.76;81.55;;
66888;Laerm;67239;51.680;5.976;2024-03-07T12:41:10;70.13;45.51;82.36;;
66888;Laerm;67239;51.680;5.976;2024-03-07T12:43:43;69.23;42.28;83.60;;
66888;Laerm;67239;51.680;5.976;2024-03-07T12:46:11;69.33;42.44;83.21;;
66888;Laerm;67239;51.680;5.976;2024-03-07T12:48:43;71.90;47.02;85.37;;
66888;Laerm;67239;51.680;5.976;2024-03-07T12:51:13;68.83;44.53;83.78;;
66888;Laerm;67239;51.680;5.976;2024-03-07T12:53:47;69.37;45.01;83.81;;
66888;Laerm;67239;51.680;5.976;2024-03-07T12:56:14;68.04;44.02;79.94;;
66888;Laerm;67239;51.680;5.976;2024-03-07T12:58:47;69.71;45.92;83.36;;
66888;Laerm;67239;51.680;5.976;2024-03-07T13:01:16;69.95;44.74;83.32;;
66888;Laerm;67239;51.680;5.976;2024-03-07T13:03:47;67.85;43.88;78.50;;
66888;Laerm;67239;51.680;5.976;2024-03-07T13:06:14;70.02;45.33;82.80;;
66888;Laerm;67239;51.680;5.976;2024-03-07T13:08:43;71.74;48.66;83.76;;
66888;Laerm;67239;51.680;5.976;2024-03-07T13:11:10;67.19;43.24;81.05;;
66888;Laerm;67239;51.680;5.976;2024-03-07T13:13:39;68.76;44.71;79.09;;
66888;Laerm;67239;51.680;5.976;2024-03-07T13:16:06;68.36;49.67;79.46;;
66888;Laerm;67239;51.680;5.976;2024-03-07T13:18:33;71.52;48.92;86.45;;
66888;Laerm;67239;51.680;5.976;2024-03-07T13:21:03;69.42;46.77;81.24;;
66888;Laerm;67239;51.680;5.976;2024-03-07T13:23:37;69.05;44.15;81.32;;
66888;Laerm;67239;51.680;5.976;2024-03-07T13:26:07;69.06;44.53;81.59;;
66888;Laerm;67239;51.680;5.976;2024-03-07T13:28:44;66.81;44.52;78.08;;
66888;Laerm;67239;51.680;5.976;2024-03-07T13:31:14;69.92;47.49;79.88;;
66888;Laerm;67239;51.680;5.976;2024-03-07T13:33:44;67.08;44.60;83.27;;
66888;Laerm;67239;51.680;5.976;2024-03-07T13:36:12;71.43;46.90;83.82;;
66888;Laerm;67239;51.680;5.976;2024-03-07T13:38:47;66.14;43.86;81.41;;
66888;Laerm;67239;51.680;5.976;2024-03-07T13:41:14;67.07;44.57;77.91;;
66888;Laerm;67239;51.680;5.976;2024-03-07T13:43:41;65.70;43.63;81.19;;
66888;Laerm;67239;51.680;5.976;2024-03-07T13:46:09;68.49;47.53;81.58;;
66888;Laerm;67239;51.680;5.976;2024-03-07T13:48:36;69.11;49.90;80.18;;
66888;Laerm;67239;51.680;5.976;2024-03-07T13:51:04;67.44;44.75;79.81;;
66888;Laerm;67239;51.680;5.976;2024-03-07T13:53:35;67.05;42.27;80.47;;
66888;Laerm;67239;51.680;5.976;2024-03-07T13:56:44;68.85;45.25;81.79;;
66888;Laerm;67239;51.680;5.976;2024-03-07T13:59:56;69.45;48.41;81.98;;
66888;Laerm;67239;51.680;5.976;2024-03-07T14:05:45;69.17;47.70;81.04;;
66888;Laerm;67239;51.680;5.976;2024-03-07T14:09:07;68.09;46.09;82.15;;